Time;durP1;ratioP1;P1;durP2;ratioP2;P2;SDS_P1;SDS_P2;PMS_P1;PMS_P2;Temp;Humidity;BMP_temperature;BMP_pressure;BME280_temperature;BME280_humidity;BME280_pressure;Samples;Min_cycle;Max_cycle;Signal;HPM_P1;HPM_P2
2023/05/17 00:00:05;;;;;;;6.47;3.85;;;;;;;11.39;54.76;100572.91;6098519;23;20088;-75
2023/05/17 00:02:32;;;;;;;4.10;3.70;;;;;;;11.36;54.80;100572.94;6050106;23;20027;-77
2023/05/17 00:05:05;;;;;;;5.30;3.53;;;;;;;11.32;55.04;100562.50;6072841;23;20023;-76
2023/05/17 00:07:33;;;;;;;10.45;3.78;;;;;;;11.39;55.21;100578.13;6049521;23;20093;-76
2023/05/17 00:09:59;;;;;;;9.00;4.18;;;;;;;11.43;55.09;100590.31;6097515;23;20055;-74
2023/05/17 00:12:33;;;;;;;6.15;4.03;;;;;;;11.29;55.33;100581.63;6098191;23;20022;-78
2023/05/17 00:15:04;;;;;;;9.77;4.00;;;;;;;11.26;55.34;100589.44;6097937;23;20534;-74
2023/05/17 00:17:36;;;;;;;4.38;3.40;;;;;;;11.18;55.76;100578.13;6097351;23;20419;-75
2023/05/17 00:20:04;;;;;;;4.63;3.25;;;;;;;11.18;55.40;100580.72;6098898;23;20109;-77
2023/05/17 00:22:32;;;;;;;5.35;3.35;;;;;;;11.22;55.85;100585.97;6049851;23;20022;-76
2023/05/17 00:25:00;;;;;;;4.70;3.10;;;;;;;11.21;55.39;100583.34;6099395;23;20458;-77
2023/05/17 00:27:25;;;;;;;7.25;3.47;;;;;;;11.20;55.92;100576.38;6073753;23;20022;-75
2023/05/17 00:29:54;;;;;;;5.22;3.28;;;;;;;11.22;55.56;100588.56;6099011;23;20028;-77
2023/05/17 00:32:20;;;;;;;4.05;2.92;;;;;;;11.20;55.71;100586.81;6094290;23;20070;-77
2023/05/17 00:34:46;;;;;;;4.97;3.40;;;;;;;11.28;55.95;100595.50;6098740;23;20435;-76
2023/05/17 00:37:19;;;;;;;14.73;3.60;;;;;;;11.29;55.44;100598.09;6097887;23;20500;-74
2023/05/17 00:39:46;;;;;;;;;;;;;;;11.30;55.79;100599.00;6073829;23;20424;-76
2023/05/17 00:42:12;;;;;;;3.67;2.70;;;;;;;11.28;55.65;100598.13;6098651;23;20029;-74
2023/05/17 00:44:41;;;;;;;10.75;2.95;;;;;;;11.30;55.56;100605.06;6098606;23;20077;-75
2023/05/17 00:47:09;;;;;;;6.00;3.10;;;;;;;11.25;55.40;100604.22;6072353;23;20499;-76
2023/05/17 00:49:36;;;;;;;10.82;3.88;;;;;;;11.19;55.55;100608.50;6098155;23;20076;-76
2023/05/17 00:52:03;;;;;;;3.88;3.40;;;;;;;11.12;55.51;100608.53;6098093;23;20029;-77
2023/05/17 00:54:30;;;;;;;4.50;2.88;;;;;;;11.14;55.56;100611.97;6072971;23;20046;-77
2023/05/17 00:57:00;;;;;;;3.97;2.92;;;;;;;11.14;55.82;100611.13;6098169;23;20062;-75
2023/05/17 00:59:27;;;;;;;4.07;2.92;;;;;;;11.15;55.98;100611.13;6098618;23;20025;-75
2023/05/17 01:01:58;;;;;;;7.13;3.35;;;;;;;11.12;55.17;100612.84;6072436;23;20100;-74
2023/05/17 01:04:27;;;;;;;6.80;3.10;;;;;;;11.09;56.08;100624.16;6098768;23;20018;-75
2023/05/17 01:06:53;;;;;;;5.50;3.63;;;;;;;11.00;55.88;100608.50;6049947;23;20025;-76
2023/05/17 01:09:20;;;;;;;6.50;3.80;;;;;;;10.99;56.06;100620.66;6048825;23;20110;-76
2023/05/17 01:12:02;;;;;;;4.25;3.28;;;;;;;11.04;56.20;100627.59;6098071;23;20101;-77
2023/05/17 01:15:00;;;;;;;7.28;3.53;;;;;;;11.01;56.25;100623.25;6097916;23;20085;-74
2023/05/17 01:17:31;;;;;;;3.45;3.10;;;;;;;11.05;56.56;100613.69;6098121;23;20026;-75
2023/05/17 01:20:09;;;;;;;6.82;3.45;;;;;;;11.07;56.52;100618.06;6098148;23;20018;-76
2023/05/17 01:22:43;;;;;;;7.88;4.50;;;;;;;11.05;55.90;100630.22;6071647;23;20411;-75
2023/05/17 01:25:19;;;;;;;5.90;3.50;;;;;;;11.03;56.31;100628.47;6097748;23;20542;-76
2023/05/17 01:27:53;;;;;;;5.40;3.30;;;;;;;11.05;56.55;100624.13;6072476;23;20018;-77
2023/05/17 01:30:19;;;;;;;7.65;3.42;;;;;;;11.03;56.31;100620.66;6071858;23;20019;-77
2023/05/17 01:32:47;;;;;;;6.40;3.22;;;;;;;11.07;56.33;100627.59;6097665;23;20028;-76
2023/05/17 01:35:15;;;;;;;5.15;3.53;;;;;;;11.11;56.61;100626.75;6073345;23;20053;-77
2023/05/17 01:37:41;;;;;;;5.65;3.50;;;;;;;11.13;56.12;100625.91;6099444;23;20040;-79
2023/05/17 01:40:08;;;;;;;4.22;3.45;;;;;;;11.13;56.59;100636.31;6073363;23;20022;-74
2023/05/17 01:42:42;;;;;;;5.47;3.40;;;;;;;11.14;56.45;100627.59;6097990;23;20038;-77
2023/05/17 01:45:30;;;;;;;5.65;3.88;;;;;;;11.17;56.37;100628.47;6098980;23;20014;-76
2023/05/17 01:48:20;;;;;;;6.07;3.30;;;;;;;11.18;56.25;100630.22;6073120;23;20120;-75
2023/05/17 01:50:51;;;;;;;4.00;3.03;;;;;;;11.15;56.07;100637.16;6072311;23;20038;-76
2023/05/17 01:53:23;;;;;;;8.30;3.72;;;;;;;11.13;56.46;100632.81;6073115;23;20466;-75
2023/05/17 01:56:00;;;;;;;5.00;3.72;;;;;;;11.19;56.43;100640.66;6097488;23;20015;-75
2023/05/17 01:58:32;;;;;;;7.10;4.60;;;;;;;11.13;55.85;100633.72;6072590;23;20097;-75
2023/05/17 02:01:01;;;;;;;13.05;5.78;;;;;;;11.13;56.26;100633.72;6096665;23;20090;-76
2023/05/17 02:03:29;;;;;;;17.38;5.32;;;;;;;11.17;56.51;100639.78;6097478;23;20085;-77
2023/05/17 02:05:58;;;;;;;11.30;5.25;;;;;;;11.15;56.27;100639.75;6073056;23;20022;-75
2023/05/17 02:08:25;;;;;;;16.67;6.50;;;;;;;11.13;56.44;100649.34;6073393;23;20428;-75
2023/05/17 02:10:55;;;;;;;20.88;5.80;;;;;;;11.12;56.56;100645.00;6071958;23;20029;-75
2023/05/17 02:13:22;;;;;;;20.45;6.35;;;;;;;11.09;56.51;100641.50;6072566;23;20050;-75
2023/05/17 02:16:01;;;;;;;16.55;6.25;;;;;;;11.10;56.42;100649.31;6096700;23;20022;-74
2023/05/17 02:18:27;;;;;;;15.10;6.85;;;;;;;11.14;56.49;100645.84;6097945;23;20081;-74
2023/05/17 02:20:57;;;;;;;19.58;6.65;;;;;;;11.13;56.21;100645.84;6073285;23;20018;-77
2023/05/17 02:23:23;;;;;;;24.45;7.53;;;;;;;11.21;56.78;100651.97;6072794;23;20375;-75
2023/05/17 02:25:54;;;;;;;22.45;6.88;;;;;;;11.21;56.62;100641.53;6073505;23;20038;-76
2023/05/17 02:28:22;;;;;;;16.25;6.90;;;;;;;11.31;56.88;100652.84;6072888;23;20019;-77
2023/05/17 02:31:15;;;;;;;23.17;7.13;;;;;;;11.39;56.80;100663.28;6078483;23;20033;-77
2023/05/17 02:33:47;;;;;;;16.63;8.75;;;;;;;11.36;56.42;100638.09;6096146;23;20488;-75
2023/05/17 02:36:16;;;;;;;21.85;9.60;;;;;;;11.51;56.90;100650.25;6097694;23;20025;-76
2023/05/17 02:38:46;;;;;;;16.05;8.15;;;;;;;11.53;56.72;100639.84;6097602;23;20273;-76
2023/05/17 02:41:16;;;;;;;15.13;8.75;;;;;;;11.69;57.09;100653.75;6097203;23;20018;-76
2023/05/17 02:43:43;;;;;;;29.27;8.90;;;;;;;11.72;57.04;100654.63;6072171;23;20449;-75
2023/05/17 02:46:11;;;;;;;16.63;7.57;;;;;;;11.82;56.83;100655.47;6096993;23;20494;-75
2023/05/17 02:48:38;;;;;;;22.80;8.38;;;;;;;11.88;57.24;100646.78;6097255;23;20109;-76
2023/05/17 02:51:06;;;;;;;20.23;8.30;;;;;;;12.07;56.68;100662.44;6071986;23;20021;-76
2023/05/17 02:53:33;;;;;;;18.55;8.50;;;;;;;12.09;56.82;100655.47;6048622;23;20022;-77
2023/05/17 02:56:00;;;;;;;26.10;8.82;;;;;;;12.22;56.72;100657.22;6071414;23;20109;-75
2023/05/17 02:58:32;;;;;;;17.90;8.43;;;;;;;12.32;56.20;100664.13;6072097;23;20117;-75
2023/05/17 03:00:59;;;;;;;11.07;7.68;;;;;;;12.38;56.72;100670.22;6071667;23;20026;-76
2023/05/17 03:03:26;;;;;;;11.50;5.05;;;;;;;12.40;56.80;100664.09;6048873;23;20022;-77
2023/05/17 03:05:52;;;;;;;15.50;5.22;;;;;;;12.61;56.58;100670.13;6095218;23;20022;-76
2023/05/17 03:08:31;;;;;;;11.80;5.03;;;;;;;12.76;56.04;100675.31;6096135;23;20026;-76
2023/05/17 03:11:06;;;;;;;7.07;4.30;;;;;;;12.94;55.66;100679.56;6049552;23;20022;-76
2023/05/17 03:13:35;;;;;;;10.10;4.13;;;;;;;13.10;55.32;100679.53;6071475;23;20027;-76
2023/05/17 03:16:02;;;;;;;6.40;4.05;;;;;;;13.25;54.93;100670.69;6072055;23;20046;-77
2023/05/17 03:18:31;;;;;;;8.20;4.20;;;;;;;13.42;54.66;100675.88;6071284;23;20053;-77
2023/05/17 03:20:59;;;;;;;7.72;4.28;;;;;;;13.50;53.93;100668.84;6048244;23;20023;-77
2023/05/17 03:23:26;;;;;;;8.27;4.60;;;;;;;13.59;54.08;100673.13;6072101;23;20026;-77
2023/05/17 03:26:04;;;;;;;9.10;4.93;;;;;;;13.68;53.70;100665.19;6072702;23;20117;-77
2023/05/17 03:28:39;;;;;;;7.57;4.05;;;;;;;13.65;53.77;100651.28;6071624;23;20054;-77
2023/05/17 03:31:06;;;;;;;5.85;3.63;;;;;;;13.83;53.25;100668.59;6071427;23;20467;-75
2023/05/17 03:33:34;;;;;;;5.50;3.70;;;;;;;13.97;53.05;100677.19;6073326;23;20072;-77
2023/05/17 03:36:01;;;;;;;6.05;3.83;;;;;;;14.17;53.02;100668.28;6099983;23;20045;-77
2023/05/17 03:38:58;;;;;;;6.22;3.40;;;;;;;14.47;52.65;100671.47;6073817;23;20030;-77
2023/05/17 03:41:26;;;;;;;11.10;3.10;;;;;;;14.65;52.11;100659.91;6099410;23;20509;-76
2023/05/17 03:43:55;;;;;;;3.35;2.72;;;;;;;14.90;51.58;100667.47;6074799;23;20019;-77
2023/05/17 03:46:24;;;;;;;6.30;3.00;;;;;;;15.12;51.05;100668.06;6074913;23;20396;-78
2023/05/17 03:48:54;;;;;;;3.67;2.70;;;;;;;15.28;50.35;100658.22;6073982;23;20029;-77
2023/05/17 03:51:22;;;;;;;4.18;2.50;;;;;;;15.34;49.89;100658.13;6054105;23;20113;-76
2023/05/17 03:54:00;;;;;;;6.57;2.70;;;;;;;15.42;49.59;100657.16;6073293;23;20022;-76
2023/05/17 03:56:30;;;;;;;3.97;2.55;;;;;;;15.56;48.95;100664.81;6049091;23;20050;-77
2023/05/17 03:59:03;;;;;;;6.32;2.78;;;;;;;15.65;48.79;100665.53;6051994;23;20034;-74
2023/05/17 04:01:33;;;;;;;6.28;2.60;;;;;;;15.89;49.00;100668.66;6072235;23;20022;-77
2023/05/17 04:04:04;;;;;;;2.40;2.20;;;;;;;15.94;48.49;100645.84;6026243;23;20035;-78
2023/05/17 04:06:33;;;;;;;5.07;2.40;;;;;;;16.30;47.96;100670.56;6076588;23;20053;-80
2023/05/17 04:09:00;;;;;;;3.80;2.38;;;;;;;16.47;47.61;100667.63;6099246;23;20027;-80
2023/05/17 04:11:31;;;;;;;3.70;2.00;;;;;;;16.47;46.77;100662.38;6076156;23;20022;-79
2023/05/17 04:14:13;;;;;;;3.90;2.28;;;;;;;16.75;46.47;100680.22;6102045;23;20014;-78
2023/05/17 04:16:49;;;;;;;6.38;2.22;;;;;;;17.03;46.46;100685.78;6053842;23;20078;-79
2023/05/17 04:19:34;;;;;;;3.45;2.40;;;;;;;17.24;45.54;100683.56;6093030;23;20474;-80
2023/05/17 04:22:10;;;;;;;3.65;2.17;;;;;;;17.40;45.17;100676.22;6053554;23;20031;-77
2023/05/17 04:24:43;;;;;;;6.03;2.45;;;;;;;17.57;44.87;100687.19;6099743;23;20018;-79
2023/05/17 04:27:14;;;;;;;6.43;2.50;;;;;;;17.86;44.24;100679.47;6075623;23;20026;-79
2023/05/17 04:29:56;;;;;;;3.55;2.15;;;;;;;17.97;43.62;100684.47;6052262;23;20026;-79
2023/05/17 04:32:26;;;;;;;3.88;2.10;;;;;;;18.11;43.45;100689.41;6078796;23;20395;-76
2023/05/17 04:34:55;;;;;;;2.50;2.00;;;;;;;18.30;43.07;100682.75;6097377;23;20022;-75
2023/05/17 04:37:23;;;;;;;3.45;2.03;;;;;;;18.44;42.58;100687.66;6048559;23;20023;-77
2023/05/17 04:39:52;;;;;;;5.78;2.30;;;;;;;18.55;42.30;100692.63;6076002;23;20451;-72
2023/05/17 04:42:19;;;;;;;3.25;2.20;;;;;;;18.75;41.93;100702.59;6096219;23;20370;-75
2023/05/17 04:44:50;;;;;;;;;;;;;;;18.92;41.49;100691.56;6096239;23;20057;-75
2023/05/17 04:47:17;;;;;;;5.00;2.10;;;;;;;18.98;41.33;100682.63;6070818;23;19917;-75
2023/05/17 04:49:45;;;;;;;4.90;2.17;;;;;;;19.26;41.04;100689.69;6089966;23;20018;-75
2023/05/17 04:52:10;;;;;;;4.25;2.13;;;;;;;19.40;40.24;100681.34;6067668;23;20880;-75
2023/05/17 04:54:37;;;;;;;2.75;1.90;;;;;;;19.66;40.40;100685.78;6069177;23;20359;-76
2023/05/17 04:57:07;;;;;;;3.15;2.15;;;;;;;19.82;39.99;100677.38;6068294;23;20541;-75
2023/05/17 04:59:51;;;;;;;3.90;2.30;;;;;;;20.16;39.48;100679.75;6067665;23;20379;-75
2023/05/17 05:02:17;;;;;;;4.80;2.00;;;;;;;20.43;39.36;100699.97;6092600;23;20018;-75
2023/05/17 05:04:45;;;;;;;4.57;2.30;;;;;;;20.31;38.56;100680.13;6069241;23;20054;-75
2023/05/17 05:07:13;;;;;;;5.80;2.20;;;;;;;20.43;38.47;100684.97;6064034;23;20136;-76
2023/05/17 05:09:41;;;;;;;2.38;2.10;;;;;;;20.53;38.27;100682.84;6020537;23;20033;-75
2023/05/17 05:12:09;;;;;;;2.95;2.10;;;;;;;20.73;37.81;100682.13;6047732;23;20086;-75
2023/05/17 05:14:37;;;;;;;3.53;2.33;;;;;;;20.98;37.55;100683.88;6071173;23;20410;-74
2023/05/17 05:17:05;;;;;;;3.90;1.85;;;;;;;21.27;37.62;100687.19;6071776;23;20026;-76
2023/05/17 05:19:32;;;;;;;2.55;1.90;;;;;;;21.68;36.88;100681.13;6071580;23;20135;-77
2023/05/17 05:22:00;;;;;;;3.25;1.80;;;;;;;22.18;36.14;100671.97;6096822;23;20037;-77
2023/05/17 05:24:29;;;;;;;4.18;1.90;;;;;;;22.84;35.55;100685.88;6072076;23;20027;-76
2023/05/17 05:26:57;;;;;;;3.75;1.85;;;;;;;23.07;35.04;100681.28;6096607;23;20073;-74
2023/05/17 05:29:24;;;;;;;7.03;2.30;;;;;;;23.13;34.49;100688.97;6096733;23;20347;-75
2023/05/17 05:31:52;;;;;;;3.47;1.73;;;;;;;23.16;34.45;100681.72;6070587;23;20057;-73
2023/05/17 05:34:23;;;;;;;6.25;2.05;;;;;;;23.61;34.14;100684.03;6072022;23;20023;-76
2023/05/17 05:36:51;;;;;;;5.15;1.80;;;;;;;24.49;33.52;100679.56;6047604;23;20465;-74
2023/05/17 05:39:47;;;;;;;5.03;1.80;;;;;;;26.44;31.54;100675.63;6069810;23;20030;-75
2023/05/17 05:42:15;;;;;;;2.75;1.60;;;;;;;28.62;28.94;100656.03;6071074;23;20018;-75
2023/05/17 05:44:44;;;;;;;2.75;1.75;;;;;;;30.03;26.78;100662.66;6072026;23;20026;-75
2023/05/17 05:47:12;;;;;;;2.00;1.65;;;;;;;31.53;25.43;100660.53;6023308;23;20018;-75
2023/05/17 05:49:46;;;;;;;5.47;1.67;;;;;;;33.09;23.01;100657.94;6097080;23;20025;-76
2023/05/17 05:52:16;;;;;;;3.95;1.77;;;;;;;33.91;22.36;100659.38;6092454;23;20022;-76
2023/05/17 05:54:50;;;;;;;2.92;1.95;;;;;;;34.22;21.59;100658.28;6067452;23;20025;-77
2023/05/17 05:57:18;;;;;;;1.85;1.63;;;;;;;34.54;20.12;100676.78;6067359;23;20038;-77
2023/05/17 05:59:49;;;;;;;3.67;1.67;;;;;;;34.92;19.81;100678.59;6092303;23;20121;-74
2023/05/17 06:02:20;;;;;;;3.97;1.70;;;;;;;35.66;18.64;100663.13;6093269;23;20024;-76
2023/05/17 06:04:47;;;;;;;2.83;1.55;;;;;;;36.05;18.17;100658.34;6041853;23;20071;-76
2023/05/17 06:07:18;;;;;;;3.88;1.60;;;;;;;36.06;17.41;100655.47;6043461;23;20131;-76
2023/05/17 06:09:55;;;;;;;2.95;1.60;;;;;;;36.66;17.04;100663.75;6093264;23;20018;-76
2023/05/17 06:12:29;;;;;;;2.13;1.70;;;;;;;36.72;16.41;100665.81;6067192;23;20026;-77
2023/05/17 06:15:18;;;;;;;1.92;1.50;;;;;;;37.95;16.12;100656.09;6091436;23;20166;-76
2023/05/17 06:17:57;;;;;;;3.85;1.75;;;;;;;38.98;15.30;100667.94;6092017;23;20451;-76
2023/05/17 06:20:27;;;;;;;3.75;1.60;;;;;;;39.83;14.86;100661.69;6067365;23;20018;-77
2023/05/17 06:23:03;;;;;;;5.70;1.80;;;;;;;40.37;13.93;100655.16;6069761;23;20023;-75
2023/05/17 06:25:39;;;;;;;4.82;1.90;;;;;;;40.49;13.72;100667.28;6068157;23;20022;-75
2023/05/17 06:28:08;;;;;;;5.80;1.83;;;;;;;40.61;13.38;100662.16;6091680;23;20033;-75
2023/05/17 06:30:41;;;;;;;;;;;;;;;39.92;12.72;100675.03;6068991;23;20018;-77
2023/05/17 06:33:16;;;;;;;1.98;1.63;;;;;;;40.15;13.63;100657.78;6089954;23;19935;-76
2023/05/17 06:35:42;;;;;;;2.88;1.70;;;;;;;41.05;12.90;100671.28;6067172;23;20390;-78
2023/05/17 06:38:10;;;;;;;2.40;1.30;;;;;;;40.74;12.08;100663.38;6091999;23;20022;-76
2023/05/17 06:40:43;;;;;;;4.38;1.75;;;;;;;40.50;11.75;100654.47;6077982;23;20026;-77
2023/05/17 06:43:09;;;;;;;4.28;1.77;;;;;;;41.40;12.33;100663.22;6043872;23;20058;-75
2023/05/17 06:45:36;;;;;;;1.80;1.70;;;;;;;42.36;11.94;100651.94;6092400;23;20042;-76
2023/05/17 06:48:04;;;;;;;6.28;2.42;;;;;;;42.47;10.75;100662.31;6067187;23;20035;-77
2023/05/17 06:50:35;;;;;;;3.15;1.58;;;;;;;41.31;11.21;100669.03;6088131;23;20019;-77
2023/05/17 06:53:27;;;;;;;4.05;1.98;;;;;;;40.61;11.88;100666.78;6091856;23;20401;-75
2023/05/17 06:55:53;;;;;;;11.30;2.08;;;;;;;40.63;12.16;100653.78;6092227;23;20037;-76
2023/05/17 06:58:19;;;;;;;1.80;1.70;;;;;;;41.08;11.69;100654.56;6066514;23;20043;-79
2023/05/17 07:00:54;;;;;;;2.92;1.90;;;;;;;41.54;11.46;100647.00;6064963;23;20022;-76
2023/05/17 07:03:22;;;;;;;7.88;2.00;;;;;;;42.82;10.76;100651.31;6097899;23;20019;-75
2023/05/17 07:05:53;;;;;;;2.70;1.45;;;;;;;43.15;10.87;100666.91;6069208;23;20015;-77
2023/05/17 07:08:34;;;;;;;2.97;1.98;;;;;;;43.78;10.01;100656.66;6097842;23;20046;-78
2023/05/17 07:11:01;;;;;;;3.72;1.90;;;;;;;44.05;9.97;100673.06;6070772;23;20231;-75
2023/05/17 07:13:31;;;;;;;3.83;1.67;;;;;;;42.97;10.06;100673.00;6096194;23;20406;-77
2023/05/17 07:15:59;;;;;;;2.95;1.67;;;;;;;42.97;9.79;100653.88;6093493;23;20057;-75
2023/05/17 07:18:26;;;;;;;3.58;1.83;;;;;;;43.79;10.10;100661.94;6095126;23;20093;-77
2023/05/17 07:21:15;;;;;;;4.07;2.00;;;;;;;44.26;9.38;100650.00;6068692;23;20022;-74
2023/05/17 07:23:51;;;;;;;5.15;1.90;;;;;;;45.15;9.48;100659.47;6068724;23;20026;-76
2023/05/17 07:27:01;;;;;;;3.60;1.95;;;;;;;44.06;9.01;100661.88;6032428;23;20061;-75
2023/05/17 07:29:29;;;;;;;3.90;1.90;;;;;;;43.78;9.37;100665.72;6038925;23;20026;-76
2023/05/17 07:31:56;;;;;;;4.25;1.75;;;;;;;42.93;10.03;100663.53;6039499;23;20030;-76
2023/05/17 07:34:42;;;;;;;4.30;2.38;;;;;;;43.16;9.73;100641.22;6043088;23;20098;-74
2023/05/17 07:37:09;;;;;;;2.25;1.90;;;;;;;43.87;9.67;100651.78;6060985;23;20594;-75
2023/05/17 07:39:37;;;;;;;11.95;2.50;;;;;;;44.25;8.55;100645.56;6038031;23;20217;-74
2023/05/17 07:42:08;;;;;;;2.38;1.70;;;;;;;44.81;8.15;100637.72;6062803;23;20069;-75
2023/05/17 07:44:36;;;;;;;6.55;2.33;;;;;;;42.89;9.04;100667.72;6062092;23;20018;-74
2023/05/17 07:47:04;;;;;;;2.53;1.88;;;;;;;41.93;9.31;100642.03;6014333;23;20023;-76
2023/05/17 07:49:33;;;;;;;4.65;1.90;;;;;;;42.40;9.58;100636.84;6061265;23;20463;-75
2023/05/17 07:52:12;;;;;;;5.25;1.65;;;;;;;42.70;9.99;100636.53;6055007;23;20027;-75
2023/05/17 07:54:48;;;;;;;3.65;1.70;;;;;;;43.75;9.29;100633.28;6061969;23;20101;-73
2023/05/17 07:57:18;;;;;;;3.85;1.77;;;;;;;44.13;9.04;100641.84;6015885;23;20087;-74
2023/05/17 07:59:44;;;;;;;2.30;1.77;;;;;;;43.14;9.17;100637.03;6061987;23;20131;-74
2023/05/17 08:02:18;;;;;;;3.10;2.00;;;;;;;42.49;9.31;100635.59;6038046;23;20026;-74
2023/05/17 08:04:47;;;;;;;3.97;1.95;;;;;;;42.10;10.01;100623.44;6061452;23;20542;-74
2023/05/17 08:07:15;;;;;;;3.72;2.45;;;;;;;42.07;9.70;100642.94;6061091;23;20018;-75
2023/05/17 08:09:44;;;;;;;2.90;1.95;;;;;;;41.15;10.32;100645.59;6062140;23;20468;-74
2023/05/17 08:12:11;;;;;;;3.38;1.90;;;;;;;41.83;10.03;100613.16;6014661;23;20031;-74
2023/05/17 08:14:38;;;;;;;2.35;2.10;;;;;;;41.52;10.23;100628.06;6061549;23;20019;-75
2023/05/17 08:17:06;;;;;;;3.53;1.80;;;;;;;41.70;9.75;100622.13;6042748;23;20026;-74
2023/05/17 08:19:32;;;;;;;4.13;1.90;;;;;;;41.55;10.14;100618.66;6093115;23;20022;-75
2023/05/17 08:22:02;;;;;;;3.92;2.20;;;;;;;41.62;9.55;100624.16;6041516;23;20026;-75
2023/05/17 08:24:30;;;;;;;3.85;2.00;;;;;;;42.28;9.79;100620.16;6093996;23;20027;-75
2023/05/17 08:27:02;;;;;;;2.22;1.67;;;;;;;44.31;9.02;100605.50;6093743;23;20060;-73
2023/05/17 08:29:30;;;;;;;3.85;1.98;;;;;;;45.51;8.06;100639.56;6069089;23;20041;-75
2023/05/17 08:31:56;;;;;;;5.60;2.20;;;;;;;45.47;8.26;100621.84;6093635;23;20034;-74
2023/05/17 08:34:26;;;;;;;5.45;2.90;;;;;;;44.97;8.33;100631.72;6068125;23;20045;-75
2023/05/17 08:36:55;;;;;;;3.63;2.15;;;;;;;43.14;8.96;100624.22;6067761;23;20446;-75
2023/05/17 08:39:39;;;;;;;4.78;2.00;;;;;;;42.02;9.53;100613.50;6071149;23;20065;-73
2023/05/17 08:42:09;;;;;;;4.53;2.00;;;;;;;42.75;9.74;100612.13;6093330;23;20030;-73
2023/05/17 08:44:40;;;;;;;3.38;2.15;;;;;;;43.51;9.07;100612.00;6094402;23;20106;-75
2023/05/17 08:47:32;;;;;;;2.70;1.92;;;;;;;43.31;9.00;100618.34;6093710;23;20033;-75
2023/05/17 08:50:01;;;;;;;3.40;1.90;;;;;;;43.43;8.57;100611.16;6090361;23;20423;-74
2023/05/17 08:52:32;;;;;;;2.20;2.00;;;;;;;42.89;8.95;100602.06;6067607;23;20015;-74
2023/05/17 08:55:04;;;;;;;2.00;1.90;;;;;;;43.43;9.28;100604.84;6069506;23;20019;-73
2023/05/17 08:57:39;;;;;;;3.70;2.20;;;;;;;43.91;9.11;100599.09;6068203;23;20015;-74
2023/05/17 09:00:27;;;;;;;4.05;1.95;;;;;;;44.87;8.04;100600.34;6094052;23;20448;-76
2023/05/17 09:02:56;;;;;;;5.17;2.40;;;;;;;45.16;8.05;100631.78;6073605;23;20026;-75
2023/05/17 09:05:25;;;;;;;2.40;1.88;;;;;;;42.87;8.90;100620.59;6044119;23;20105;-73
2023/05/17 09:08:06;;;;;;;2.40;2.10;;;;;;;42.66;9.52;100618.84;6094113;23;20029;-74
2023/05/17 09:10:35;;;;;;;4.07;3.67;;;;;;;43.30;8.89;100601.06;6066769;23;20018;-74
2023/05/17 09:13:02;;;;;;;7.45;2.20;;;;;;;44.81;8.48;100610.28;6043162;23;20121;-79
2023/05/17 09:15:33;;;;;;;5.78;2.25;;;;;;;45.48;8.18;100609.78;6090353;23;20049;-74
2023/05/17 09:18:06;;;;;;;4.65;2.42;;;;;;;45.02;8.05;100616.50;6096814;23;20093;-73
2023/05/17 09:20:36;;;;;;;2.25;2.05;;;;;;;44.34;8.16;100597.66;6066166;23;20015;-73
2023/05/17 09:23:04;;;;;;;2.17;2.00;;;;;;;44.09;8.61;100603.88;6092138;23;20502;-74
2023/05/17 09:25:30;;;;;;;3.20;1.70;;;;;;;43.57;8.50;100592.81;6093305;23;20026;-74
2023/05/17 09:28:06;;;;;;;1.98;1.85;;;;;;;43.88;8.93;100609.63;6093337;23;20038;-73
2023/05/17 09:30:37;;;;;;;4.45;2.25;;;;;;;44.09;8.53;100595.66;6041758;23;20034;-74
2023/05/17 09:33:10;;;;;;;2.42;2.10;;;;;;;44.48;8.12;100598.47;6093274;23;20034;-75
2023/05/17 09:35:48;;;;;;;5.07;2.20;;;;;;;45.08;8.20;100596.41;6090784;23;20019;-73
2023/05/17 09:38:26;;;;;;;;;;;;;;;44.42;8.65;100584.78;6092501;23;20026;-74
2023/05/17 09:40:53;;;;;;;4.32;1.98;;;;;;;44.44;8.13;100590.88;6092275;23;19953;-73
2023/05/17 09:43:28;;;;;;;3.55;1.70;;;;;;;43.28;8.31;100594.13;6067347;23;20371;-75
2023/05/17 09:45:57;;;;;;;2.40;2.17;;;;;;;42.97;8.82;100584.59;6068686;23;20030;-76
2023/05/17 09:48:36;;;;;;;;;;;;;;;43.75;8.76;100586.72;6068358;23;20026;-73
2023/05/17 09:51:06;;;;;;;3.47;1.80;;;;;;;44.47;8.77;100574.03;6064769;23;20027;-74
2023/05/17 09:53:40;;;;;;;3.28;2.47;;;;;;;44.50;8.53;100570.81;6066857;23;20029;-73
2023/05/17 09:56:09;;;;;;;5.90;2.30;;;;;;;43.36;8.43;100609.47;6092233;23;20018;-73
2023/05/17 09:58:41;;;;;;;6.63;2.03;;;;;;;41.77;8.93;100583.94;6067983;23;20022;-73
2023/05/17 10:01:20;;;;;;;3.13;2.08;;;;;;;41.73;9.93;100585.38;5062183;28;20403;-73
2023/05/17 10:03:53;;;;;;;2.30;2.10;;;;;;;41.29;9.33;100573.72;5050846;28;20053;-73
2023/05/17 10:06:23;;;;;;;4.68;2.20;;;;;;;40.58;10.42;100560.84;5054687;28;20554;-73
2023/05/17 10:08:54;;;;;;;5.40;2.37;;;;;;;41.06;10.00;100566.56;5050940;28;20380;-73
2023/05/17 10:11:32;;;;;;;3.63;2.05;;;;;;;41.21;9.45;100574.72;5055688;28;20048;-74
2023/05/17 10:14:07;;;;;;;6.07;2.53;;;;;;;41.01;9.48;100573.66;5045133;28;20069;-74
2023/05/17 10:16:41;;;;;;;2.30;2.10;;;;;;;40.53;9.64;100582.38;5046129;28;20064;-73
2023/05/17 10:19:10;;;;;;;3.13;1.97;;;;;;;39.59;10.43;100563.75;5065612;28;20055;-74
2023/05/17 10:21:40;;;;;;;3.50;2.25;;;;;;;39.19;10.76;100579.38;5052694;28;21000;-74
2023/05/17 10:24:29;;;;;;;6.22;1.95;;;;;;;38.82;10.87;100564.69;5046879;28;20041;-74
2023/05/17 10:26:56;;;;;;;6.80;2.30;;;;;;;38.17;11.28;100564.03;5052016;28;20101;-74
2023/05/17 10:29:41;;;;;;;4.57;1.95;;;;;;;36.23;11.88;100547.22;5052355;28;20048;-75
2023/05/17 10:32:12;;;;;;;6.60;2.30;;;;;;;34.51;13.54;100547.47;5055049;28;20056;-74
2023/05/17 10:34:45;;;;;;;2.30;1.95;;;;;;;33.19;14.19;100565.28;5053639;28;20064;-74
2023/05/17 10:37:20;;;;;;;3.83;2.28;;;;;;;32.24;15.55;100575.56;5053317;28;20056;-73
2023/05/17 10:39:50;;;;;;;5.53;2.20;;;;;;;31.74;15.58;100573.66;5052438;28;20087;-73
2023/05/17 10:42:31;;;;;;;3.53;2.20;;;;;;;30.93;16.63;100549.94;5024568;28;20076;-75
2023/05/17 10:45:06;;;;;;;4.05;2.00;;;;;;;30.28;17.22;100561.44;5051996;28;20398;-75
2023/05/17 10:47:35;;;;;;;2.47;2.22;;;;;;;29.81;17.62;100533.84;5051001;28;20072;-72
2023/05/17 10:50:13;;;;;;;3.30;2.38;;;;;;;29.56;17.98;100551.84;5052704;28;20079;-73
2023/05/17 10:52:47;;;;;;;2.95;1.80;;;;;;;29.10;18.91;100542.81;5011847;28;20145;-73
2023/05/17 10:55:39;;;;;;;3.83;2.15;;;;;;;28.82;19.04;100545.69;5040200;28;20033;-72
2023/05/17 10:58:20;;;;;;;3.97;2.10;;;;;;;28.65;19.20;100549.63;5031437;28;20095;-75
2023/05/17 11:01:54;;;;;;;3.72;1.90;;;;;;;28.37;19.41;100556.09;5029160;28;20068;-75
2023/05/17 11:04:43;;;;;;;3.97;2.08;;;;;;;27.76;19.71;100540.75;5041921;28;20067;-77
2023/05/17 11:07:30;;;;;;;2.75;2.20;;;;;;;27.38;20.18;100552.22;5031735;28;20396;-79
2023/05/17 11:10:14;;;;;;;9.02;2.33;;;;;;;27.17;21.18;100558.91;5037014;28;20083;-78
2023/05/17 11:13:29;;;;;;;4.88;1.90;;;;;;;27.21;21.12;100546.22;5020453;28;20120;-75
2023/05/17 11:16:36;;;;;;;3.58;2.40;;;;;;;26.81;20.94;100539.03;5020323;28;20069;-75
2023/05/17 11:19:20;;;;;;;2.72;2.10;;;;;;;26.39;21.97;100543.50;5038274;28;20083;-74
2023/05/17 11:22:13;;;;;;;8.02;2.10;;;;;;;26.20;22.05;100549.13;5021363;28;20049;-74
2023/05/17 11:24:52;;;;;;;3.00;2.10;;;;;;;26.03;22.17;100543.03;5022391;28;20053;-73
2023/05/17 11:27:50;;;;;;;3.70;2.10;;;;;;;25.93;22.98;100533.91;5020953;28;20049;-73
2023/05/17 11:30:39;;;;;;;2.85;1.92;;;;;;;25.88;23.06;100538.66;5020003;28;20042;-74
2023/05/17 11:34:06;;;;;;;2.38;2.00;;;;;;;25.88;23.00;100522.66;5032254;28;20046;-75
2023/05/17 11:36:54;;;;;;;5.60;2.25;;;;;;;26.02;22.72;100523.50;5016503;28;20045;-75
2023/05/17 11:39:25;;;;;;;3.38;2.03;;;;;;;26.17;22.93;100526.19;5024951;28;20533;-74
2023/05/17 11:42:11;;;;;;;;;;;;;;;25.92;22.86;100550.84;5019138;28;20077;-76
2023/05/17 11:44:57;;;;;;;5.15;2.08;;;;;;;25.72;23.20;100531.56;5020528;28;19996;-75
2023/05/17 11:47:27;;;;;;;2.33;1.98;;;;;;;25.74;23.08;100516.34;5023598;28;20534;-74
2023/05/17 11:49:55;;;;;;;2.00;1.80;;;;;;;25.83;23.25;100520.25;5015793;28;20042;-76
2023/05/17 11:53:48;;;;;;;3.03;1.85;;;;;;;25.91;22.93;100511.81;5011027;28;20054;-75